createdAt,value
2023-04-04T00:01:49.620Z,-2.74
2023-04-04T00:04:57.164Z,-2.74
2023-04-04T00:08:03.291Z,-2.70
2023-04-04T00:11:17.602Z,-2.79
2023-04-04T00:14:25.441Z,-2.86
2023-04-04T00:17:32.247Z,-2.85
2023-04-04T00:20:39.013Z,-2.92
2023-04-04T00:23:45.954Z,-2.93
2023-04-04T00:26:54.578Z,-3.04
2023-04-04T00:30:04.764Z,-3.07
2023-04-04T00:33:10.947Z,-3.17
2023-04-04T00:36:18.965Z,-3.18
2023-04-04T00:39:26.782Z,-3.23
2023-04-04T00:42:37.753Z,-3.26
2023-04-04T00:45:44.694Z,-3.28
2023-04-04T00:48:54.541Z,-3.35
2023-04-04T00:52:00.549Z,-3.34
2023-04-04T00:55:20.898Z,-3.38
2023-04-04T00:58:30.580Z,-3.44
2023-04-04T01:01:38.944Z,-3.45
2023-04-04T01:04:51.963Z,-3.51
2023-04-04T01:07:59.171Z,-3.45
2023-04-04T01:11:05.727Z,-3.49
2023-04-04T01:14:15.964Z,-3.49
2023-04-04T01:17:23.124Z,-3.49
2023-04-04T01:20:37.276Z,-3.49
2023-04-04T01:24:05.185Z,-3.75
2023-04-04T01:27:30.079Z,-3.65
2023-04-04T01:30:49.191Z,-3.72
2023-04-04T01:34:08.141Z,-3.73
2023-04-04T01:37:33.386Z,-3.76
2023-04-04T01:40:47.837Z,-3.81
2023-04-04T01:43:57.598Z,-3.89
2023-04-04T01:47:08.955Z,-3.96
2023-04-04T01:50:15.773Z,-3.97
2023-04-04T01:53:23.402Z,-4.04
2023-04-04T01:56:29.475Z,-3.99
2023-04-04T01:59:41.555Z,-4.10
2023-04-04T02:02:47.890Z,-4.03
2023-04-04T02:05:56.402Z,-4.08
2023-04-04T02:09:02.933Z,-4.20
2023-04-04T02:12:12.195Z,-4.19
2023-04-04T02:15:24.227Z,-4.18
2023-04-04T02:18:37.355Z,-4.15
2023-04-04T02:21:57.774Z,-4.27
2023-04-04T02:25:12.987Z,-4.35
2023-04-04T02:28:18.940Z,-4.33
2023-04-04T02:31:32.600Z,-4.36
2023-04-04T02:34:39.037Z,-4.37
2023-04-04T02:37:49.841Z,-4.35
2023-04-04T02:41:05.393Z,-4.38
2023-04-04T02:44:12.903Z,-4.34
2023-04-04T02:47:24.440Z,-4.28
2023-04-04T02:50:31.290Z,-4.27
2023-04-04T02:53:40.098Z,-4.33
2023-04-04T02:57:01.747Z,-4.41
2023-04-04T03:00:10.191Z,-4.35
2023-04-04T03:03:20.635Z,-4.29
2023-04-04T03:06:37.983Z,-4.34
2023-04-04T03:09:47.731Z,-4.37
2023-04-04T03:12:53.890Z,-4.39
2023-04-04T03:16:10.559Z,-4.31
2023-04-04T03:19:28.298Z,-4.39
2023-04-04T03:22:36.389Z,-4.44
2023-04-04T03:25:42.585Z,-4.45
2023-04-04T03:28:49.571Z,-4.52
2023-04-04T03:32:18.481Z,-4.37
2023-04-04T03:35:28.351Z,-4.37
2023-04-04T03:38:34.544Z,-4.35
2023-04-04T03:41:50.178Z,-4.41
2023-04-04T03:44:56.513Z,-4.55
2023-04-04T03:48:14.093Z,-4.50
2023-04-04T03:51:27.713Z,-4.47
2023-04-04T03:54:42.202Z,-4.42
2023-04-04T03:57:49.566Z,-4.46
2023-04-04T04:00:57.551Z,-4.54
2023-04-04T04:04:08.453Z,-4.45
2023-04-04T04:07:19.514Z,-4.42
2023-04-04T04:10:25.819Z,-4.40
2023-04-04T04:13:32.893Z,-4.50
2023-04-04T04:16:43.451Z,-4.39
2023-04-04T04:19:54.238Z,-4.41
2023-04-04T04:23:04.393Z,-4.53
2023-04-04T04:26:11.284Z,-4.42
2023-04-04T04:29:17.418Z,-4.47
2023-04-04T04:32:33.923Z,-4.48
2023-04-04T04:35:41.317Z,-4.56
2023-04-04T04:38:56.289Z,-4.64
2023-04-04T04:42:06.086Z,-4.67
2023-04-04T04:45:16.507Z,-4.65
2023-04-04T04:48:27.453Z,-4.75
2023-04-04T04:51:37.793Z,-4.62
2023-04-04T04:54:56.285Z,-4.54
2023-04-04T04:58:04.706Z,-4.50
2023-04-04T05:01:11.662Z,-4.50
2023-04-04T05:04:22.773Z,-4.47
2023-04-04T05:07:51.768Z,-4.34
2023-04-04T05:11:02.697Z,-4.31
2023-04-04T05:14:11.765Z,-4.32
2023-04-04T05:17:37.190Z,-4.23
2023-04-04T05:20:46.804Z,-4.12
2023-04-04T05:23:54.196Z,-4.14
2023-04-04T05:27:07.888Z,-4.18
2023-04-04T05:30:21.135Z,-4.27
2023-04-04T05:33:40.292Z,-4.23
2023-04-04T05:36:56.738Z,-4.00
2023-04-04T05:40:03.302Z,-3.58
2023-04-04T05:43:12.936Z,-3.83
2023-04-04T05:46:33.187Z,-3.80
2023-04-04T05:49:40.092Z,-3.29
2023-04-04T05:52:46.299Z,-2.92
2023-04-04T05:55:56.021Z,-2.85
2023-04-04T05:59:22.343Z,-1.85
2023-04-04T06:02:46.663Z,-1.32
2023-04-04T06:05:57.453Z,-1.84
2023-04-04T06:09:05.805Z,-1.98
2023-04-04T06:12:14.355Z,-2.00
2023-04-04T06:15:24.846Z,-1.39
2023-04-04T06:18:31.746Z,-0.77
2023-04-04T06:21:39.157Z,0.09
2023-04-04T06:24:45.392Z,0.58
2023-04-04T06:27:54.427Z,1.09
2023-04-04T06:31:03.230Z,0.39
2023-04-04T06:34:15.289Z,1.00
2023-04-04T06:37:35.796Z,1.46
2023-04-04T06:40:50.753Z,1.64
2023-04-04T06:44:03.215Z,2.26
2023-04-04T06:47:29.224Z,2.50
2023-04-04T06:50:35.474Z,3.53
2023-04-04T06:53:45.068Z,4.11
2023-04-04T06:56:52.045Z,3.61
2023-04-04T07:00:11.506Z,3.23
2023-04-04T07:03:27.232Z,2.56
2023-04-04T07:06:34.112Z,2.28
2023-04-04T07:09:40.201Z,2.32
2023-04-04T07:12:47.051Z,3.01
2023-04-04T07:15:59.315Z,3.81
2023-04-04T07:19:08.855Z,4.02
2023-04-04T07:22:21.837Z,3.95
2023-04-04T07:25:31.922Z,3.72
2023-04-04T07:28:37.901Z,4.64
2023-04-04T07:31:45.091Z,3.71
2023-04-04T07:34:53.961Z,2.60
2023-04-04T07:38:07.215Z,3.15
2023-04-04T07:41:16.602Z,2.10
2023-04-04T07:44:23.582Z,2.80
2023-04-04T07:47:29.633Z,3.01
2023-04-04T07:50:39.208Z,3.52
2023-04-04T07:53:45.267Z,4.28
2023-04-04T07:56:51.992Z,4.98
2023-04-04T07:59:58.057Z,4.63
2023-04-04T08:03:05.012Z,4.60
2023-04-04T08:06:13.761Z,5.42
2023-04-04T08:09:20.586Z,6.15
2023-04-04T08:12:26.644Z,6.03
2023-04-04T08:15:33.326Z,5.66
2023-04-04T08:18:40.975Z,5.28
2023-04-04T08:21:50.408Z,5.67
2023-04-04T08:24:59.036Z,6.35
2023-04-04T08:28:07.248Z,5.35
2023-04-04T08:31:13.520Z,3.16
2023-04-04T08:34:21.077Z,4.18
2023-04-04T08:37:31.450Z,4.66
2023-04-04T08:40:38.896Z,4.10
2023-04-04T08:43:54.774Z,3.56
2023-04-04T08:47:05.778Z,3.10
2023-04-04T08:50:12.345Z,3.23
2023-04-04T08:53:23.516Z,2.93
2023-04-04T08:56:30.126Z,2.93
2023-04-04T08:59:37.445Z,3.42
2023-04-04T09:02:58.330Z,2.88
2023-04-04T09:06:07.689Z,2.95
2023-04-04T09:09:18.883Z,2.22
2023-04-04T09:12:27.876Z,2.41
2023-04-04T09:15:38.717Z,2.89
2023-04-04T09:18:45.535Z,2.49
2023-04-04T09:21:52.238Z,2.97
2023-04-04T09:25:01.810Z,3.04
2023-04-04T09:28:08.700Z,2.86
2023-04-04T09:31:17.643Z,2.39
2023-04-04T09:34:24.314Z,2.04
2023-04-04T09:37:31.473Z,1.90
2023-04-04T09:40:44.246Z,2.44
2023-04-04T09:43:51.554Z,3.05
2023-04-04T09:47:30.955Z,2.09
2023-04-04T09:50:41.757Z,2.30
2023-04-04T09:53:52.224Z,2.29
2023-04-04T09:57:02.087Z,2.80
2023-04-04T10:00:11.585Z,3.55
2023-04-04T10:03:21.244Z,2.98
2023-04-04T10:06:27.556Z,2.39
2023-04-04T10:09:34.542Z,2.61
2023-04-04T10:12:43.170Z,2.44
2023-04-04T10:15:51.098Z,2.16
2023-04-04T10:18:57.619Z,2.33
2023-04-04T10:22:08.199Z,2.21
2023-04-04T10:25:14.533Z,1.97
2023-04-04T10:28:25.115Z,2.08
2023-04-04T10:31:37.608Z,2.58
2023-04-04T10:34:56.972Z,2.66
2023-04-04T10:38:08.675Z,2.76
2023-04-04T10:41:18.003Z,2.43
2023-04-04T10:44:34.229Z,1.97
2023-04-04T10:47:43.412Z,2.04
2023-04-04T10:50:52.069Z,2.03
2023-04-04T10:53:59.651Z,2.79
2023-04-04T10:57:06.200Z,2.84
2023-04-04T11:00:19.744Z,2.81
2023-04-04T11:03:26.422Z,2.70
2023-04-04T11:07:17.650Z,1.85
2023-04-04T11:10:28.608Z,2.60
2023-04-04T11:13:40.211Z,2.81
2023-04-04T11:16:55.796Z,3.59
2023-04-04T11:20:06.960Z,2.84
2023-04-04T11:23:23.223Z,3.27
2023-04-04T11:26:39.928Z,4.38
2023-04-04T11:29:56.077Z,4.36
2023-04-04T11:33:08.178Z,3.85
2023-04-04T11:36:47.759Z,3.10
2023-04-04T11:39:59.336Z,2.74
2023-04-04T11:43:11.154Z,3.15
2023-04-04T11:46:21.517Z,3.55
2023-04-04T11:49:38.481Z,3.76
2023-04-04T11:52:46.563Z,5.25
2023-04-04T11:55:55.063Z,5.09
2023-04-04T11:59:11.026Z,3.79
2023-04-04T12:02:23.832Z,3.42
2023-04-04T12:05:34.410Z,3.54
2023-04-04T12:08:40.845Z,3.51
2023-04-04T12:11:48.624Z,2.91
2023-04-04T12:15:06.762Z,2.59
2023-04-04T12:18:26.836Z,2.67
2023-04-04T12:21:37.484Z,3.02
2023-04-04T12:24:44.464Z,3.32
2023-04-04T12:27:52.973Z,3.35
2023-04-04T12:31:05.586Z,2.68
2023-04-04T12:34:19.949Z,2.00
2023-04-04T12:37:33.500Z,1.41
2023-04-04T12:40:42.183Z,1.94
2023-04-04T12:43:50.338Z,1.82
2023-04-04T12:47:00.947Z,2.28
2023-04-04T12:50:12.186Z,2.34
2023-04-04T12:56:35.839Z,1.62
2023-04-04T12:59:42.537Z,1.38
2023-04-04T13:02:53.501Z,1.34
2023-04-04T13:06:01.634Z,1.21
2023-04-04T13:09:21.169Z,1.32
2023-04-04T13:12:27.563Z,1.17
2023-04-04T13:15:54.787Z,1.05
2023-04-04T13:19:01.228Z,1.09
2023-04-04T13:22:12.602Z,1.53
2023-04-04T13:25:21.584Z,1.61
2023-04-04T13:28:28.609Z,1.83
2023-04-04T13:31:34.769Z,1.85
2023-04-04T13:34:41.742Z,2.04
2023-04-04T13:37:47.803Z,1.71
2023-04-04T13:40:57.659Z,1.83
2023-04-04T13:44:03.915Z,1.82
2023-04-04T13:47:10.828Z,1.18
2023-04-04T13:50:17.160Z,0.48
2023-04-04T13:53:24.263Z,0.74
2023-04-04T13:56:32.979Z,0.61
2023-04-04T13:59:39.871Z,0.61
2023-04-04T14:02:47.004Z,0.83
2023-04-04T14:05:54.045Z,0.83
2023-04-04T14:09:00.051Z,0.39
2023-04-04T14:12:10.088Z,0.32
2023-04-04T14:15:16.230Z,0.51
2023-04-04T14:18:23.157Z,0.17
2023-04-04T14:21:29.201Z,-0.07
2023-04-04T14:24:35.998Z,-0.08
2023-04-04T14:27:46.497Z,-0.04
2023-04-04T14:30:54.165Z,-0.19
2023-04-04T14:34:00.505Z,0.22
2023-04-04T14:37:07.796Z,0.27
2023-04-04T14:40:14.530Z,0.35
2023-04-04T14:43:26.246Z,-0.31
2023-04-04T14:46:34.268Z,-0.57
2023-04-04T14:49:41.053Z,-0.56
2023-04-04T14:52:48.101Z,-0.27
2023-04-04T14:55:55.637Z,-0.56
2023-04-04T14:59:06.059Z,-0.51
2023-04-04T15:02:12.854Z,-0.23
2023-04-04T15:05:19.493Z,-0.45
2023-04-04T15:08:26.759Z,-0.55
2023-04-04T15:11:33.396Z,-1.06
2023-04-04T15:14:43.112Z,-1.10
2023-04-04T15:17:51.179Z,-1.09
2023-04-04T15:21:00.372Z,-1.25
2023-04-04T15:24:06.495Z,-1.17
2023-04-04T15:27:15.574Z,-0.85
2023-04-04T15:30:29.566Z,-0.88
2023-04-04T15:33:39.349Z,-0.87
2023-04-04T15:36:45.451Z,-0.94
2023-04-04T15:39:55.048Z,-1.05
2023-04-04T15:43:01.573Z,-1.07
2023-04-04T15:46:14.371Z,-1.15
2023-04-04T15:49:20.417Z,-1.36
2023-04-04T15:52:27.450Z,-1.15
2023-04-04T15:55:33.472Z,-0.96
2023-04-04T15:58:40.219Z,-1.11
2023-04-04T16:01:49.222Z,-1.10
2023-04-04T16:04:56.225Z,-1.09
2023-04-04T16:08:03.412Z,-1.17
2023-04-04T16:11:10.195Z,-1.34
2023-04-04T16:14:16.339Z,-1.38
2023-04-04T16:17:26.434Z,-1.39
2023-04-04T16:20:33.246Z,-1.39
2023-04-04T16:23:40.118Z,-1.34
2023-04-04T16:26:47.737Z,-1.39
2023-04-04T16:29:54.553Z,-1.38
2023-04-04T16:33:10.453Z,-1.58
2023-04-04T16:36:17.512Z,-1.70
2023-04-04T16:39:23.483Z,-1.84
2023-04-04T16:42:30.449Z,-1.86
2023-04-04T16:45:36.499Z,-1.73
2023-04-04T16:48:46.314Z,-1.73
2023-04-04T16:51:52.312Z,-1.80
2023-04-04T16:54:59.192Z,-1.98
2023-04-04T16:58:05.366Z,-2.08
2023-04-04T17:01:15.404Z,-1.89
2023-04-04T17:04:24.008Z,-1.87
2023-04-04T17:07:31.119Z,-1.82
2023-04-04T17:10:40.818Z,-1.82
2023-04-04T17:13:47.988Z,-1.83
2023-04-04T17:16:54.577Z,-1.94
2023-04-04T17:20:08.642Z,-1.88
2023-04-04T17:23:17.425Z,-2.20
2023-04-04T17:26:40.068Z,-2.08
2023-04-04T17:29:46.414Z,-2.03
2023-04-04T17:32:55.683Z,-2.17
2023-04-04T17:36:06.586Z,-2.26
2023-04-04T17:39:15.773Z,-2.22
2023-04-04T17:42:21.778Z,-2.41
2023-04-04T17:45:39.382Z,-2.55
2023-04-04T17:48:49.971Z,-2.43
2023-04-04T17:52:21.456Z,-2.19
2023-04-04T17:55:42.201Z,-2.09
2023-04-04T17:58:49.990Z,-2.16
2023-04-04T18:01:57.326Z,-2.06
2023-04-04T18:05:04.457Z,-2.03
2023-04-04T18:08:14.236Z,-2.04
2023-04-04T18:11:21.256Z,-2.01
2023-04-04T18:14:30.231Z,-2.00
2023-04-04T18:17:37.203Z,-2.31
2023-04-04T18:20:43.609Z,-2.38
2023-04-04T18:23:53.365Z,-2.38
2023-04-04T18:26:59.971Z,-2.41
2023-04-04T18:30:07.839Z,-2.42
2023-04-04T18:33:15.277Z,-2.31
2023-04-04T18:36:22.271Z,-2.29
2023-04-04T18:39:31.337Z,-2.27
2023-04-04T18:42:38.980Z,-2.39
2023-04-04T18:45:47.119Z,-2.41
2023-04-04T18:48:54.286Z,-2.40
2023-04-04T18:52:01.218Z,-2.46
2023-04-04T18:55:12.721Z,-2.48
2023-04-04T18:58:18.810Z,-2.55
2023-04-04T19:01:26.028Z,-2.57
2023-04-04T19:04:38.788Z,-2.66
2023-04-04T19:07:49.732Z,-2.78
2023-04-04T19:11:03.571Z,-2.84
2023-04-04T19:14:10.547Z,-2.91
2023-04-04T19:17:18.522Z,-2.94
2023-04-04T19:20:35.064Z,-3.03
2023-04-04T19:23:41.474Z,-3.12
2023-04-04T19:26:59.367Z,-3.27
2023-04-04T19:30:14.640Z,-3.26
2023-04-04T19:33:26.103Z,-3.28
2023-04-04T19:36:40.867Z,-3.33
2023-04-04T19:39:53.789Z,-3.37
2023-04-04T19:43:04.342Z,-3.41
2023-04-04T19:46:14.434Z,-3.47
2023-04-04T19:49:21.086Z,-3.47
2023-04-04T19:52:41.455Z,-3.54
2023-04-04T19:55:47.738Z,-3.50
2023-04-04T19:59:08.095Z,-3.58
2023-04-04T20:02:58.286Z,-3.61
2023-04-04T20:06:12.661Z,-3.66
2023-04-04T20:09:40.341Z,-3.64
2023-04-04T20:12:56.674Z,-3.68
2023-04-04T20:16:12.356Z,-3.68
2023-04-04T20:19:32.615Z,-3.67
2023-04-04T20:22:38.871Z,-3.71
2023-04-04T20:25:47.399Z,-3.73
2023-04-04T20:28:53.433Z,-3.74
2023-04-04T20:32:05.714Z,-3.77
2023-04-04T20:35:29.286Z,-3.79
2023-04-04T20:38:36.627Z,-3.79
2023-04-04T20:41:45.783Z,-3.83
2023-04-04T20:44:52.729Z,-3.86
2023-04-04T20:48:06.789Z,-3.87
2023-04-04T20:51:30.182Z,-3.84
2023-04-04T20:54:39.672Z,-3.87
2023-04-04T20:57:48.543Z,-3.89
2023-04-04T21:00:54.752Z,-3.90
2023-04-04T21:04:04.275Z,-3.91
2023-04-04T21:07:10.447Z,-3.92
2023-04-04T21:10:27.636Z,-3.93
2023-04-04T21:13:39.402Z,-3.89
2023-04-04T21:16:46.301Z,-3.92
2023-04-04T21:20:07.442Z,-3.92
2023-04-04T21:23:36.361Z,-3.96
2023-04-04T21:26:51.448Z,-3.96
2023-04-04T21:29:58.440Z,-4.04
2023-04-04T21:33:04.646Z,-4.05
2023-04-04T21:36:27.749Z,-4.05
2023-04-04T21:39:35.350Z,-4.05
2023-04-04T21:42:42.163Z,-4.09
2023-04-04T21:45:48.482Z,-4.10
2023-04-04T21:48:56.283Z,-4.13
2023-04-04T21:52:05.024Z,-4.19
2023-04-04T21:55:15.321Z,-4.18
2023-04-04T21:58:23.605Z,-4.23
2023-04-04T22:01:31.286Z,-4.24
2023-04-04T22:04:37.442Z,-4.24
2023-04-04T22:07:47.218Z,-4.23
2023-04-04T22:10:53.281Z,-4.25
2023-04-04T22:14:07.846Z,-4.35
2023-04-04T22:17:23.153Z,-4.37
2023-04-04T22:20:29.958Z,-4.38
2023-04-04T22:23:40.600Z,-4.42
2023-04-04T22:26:47.693Z,-4.41
2023-04-04T22:29:53.671Z,-4.49
2023-04-04T22:33:03.783Z,-4.54
2023-04-04T22:36:11.303Z,-4.54
2023-04-04T22:39:20.952Z,-4.50
2023-04-04T22:42:27.218Z,-4.49
2023-04-04T22:45:34.790Z,-4.53
2023-04-04T22:48:41.637Z,-4.50
2023-04-04T22:51:48.535Z,-4.53
2023-04-04T22:54:57.161Z,-4.62
2023-04-04T22:58:04.987Z,-4.61
2023-04-04T23:01:11.200Z,-4.57
2023-04-04T23:04:18.203Z,-4.59
2023-04-04T23:07:24.243Z,-4.60
2023-04-04T23:10:34.676Z,-4.69
2023-04-04T23:13:42.627Z,-4.70
2023-04-04T23:16:53.065Z,-4.77
2023-04-04T23:19:59.411Z,-4.81
2023-04-04T23:23:06.312Z,-4.82
2023-04-04T23:26:14.921Z,-4.80
2023-04-04T23:29:21.757Z,-4.80
2023-04-04T23:32:27.793Z,-4.82
2023-04-04T23:35:34.730Z,-4.82
2023-04-04T23:38:43.562Z,-4.84
2023-04-04T23:41:52.960Z,-4.84
2023-04-04T23:45:03.790Z,-4.85
2023-04-04T23:48:11.139Z,-4.91
2023-04-04T23:51:17.823Z,-4.97
2023-04-04T23:54:24.582Z,-5.00
2023-04-04T23:57:39.471Z,-5.04
